Charlottetown, Canada
Current Conditions -  °F | °C
As of 7:00 AM on Friday 19 Dec 2014 (Local Time) from CYYG Reporting Station
Light Snow Light Snow  
Wind Chill: -3°   Ceiling: 400
Heat Index:   Visibility: 8mi
Dew Point:   Wind: 5mph
Humidity: 100%   Direction: 320°NW
Pressure: 29.5"   Gusts: NA
Location:  46.24°N, 63.13°W
Report Text: CYYG 191100Z 32004KT 8SM -SN BKN004 OVC012 00/00 A2950 RMK SF6SC2 SLP990
Loading
Personal Weather Stations






























Interactive Weather Map New forecast layout! Learn more

10-Day Weather Forecast

Advertisements
Track Severe Weather on mobile